createdAt,value
2023-02-12T00:06:45.075Z,605.00
2023-02-12T00:07:45.116Z,608.00
2023-02-12T00:08:45.143Z,603.00
2023-02-12T00:09:45.169Z,606.00
2023-02-12T00:32:46.083Z,601.00
2023-02-12T00:33:46.086Z,598.00
2023-02-12T00:34:46.122Z,597.00
2023-02-12T00:35:46.198Z,599.00
2023-02-12T00:36:46.257Z,598.00
2023-02-12T00:37:46.319Z,593.00
2023-02-12T00:38:46.298Z,591.00
2023-02-12T00:39:46.345Z,596.00
2023-02-12T00:40:46.395Z,596.00
2023-02-12T00:41:46.397Z,598.00
2023-02-12T00:42:46.442Z,596.00
2023-02-12T00:43:46.519Z,597.00
2023-02-12T00:44:46.542Z,599.00
2023-02-12T00:45:46.569Z,597.00
2023-02-12T00:46:46.669Z,595.00
2023-02-12T00:47:46.657Z,600.00
2023-02-12T00:48:46.705Z,598.00
2023-02-12T00:49:46.724Z,599.00
2023-02-12T00:50:46.792Z,593.00
2023-02-12T00:51:46.786Z,593.00
2023-02-12T00:52:46.838Z,596.00
2023-02-12T00:53:46.863Z,597.00
2023-02-12T00:54:46.887Z,595.00
2023-02-12T00:55:46.946Z,594.00
2023-02-12T00:56:47.008Z,596.00
2023-02-12T00:57:47.028Z,593.00
2023-02-12T00:58:47.082Z,595.00
2023-02-12T00:59:47.134Z,597.00
2023-02-12T01:00:47.158Z,595.00
2023-02-12T01:01:47.226Z,595.00
2023-02-12T01:20:47.886Z,587.00
2023-02-12T01:38:48.665Z,580.00
2023-02-12T01:39:48.705Z,585.00
2023-02-12T01:40:48.739Z,581.00
2023-02-12T01:41:48.751Z,580.00
2023-02-12T01:42:48.774Z,580.00
2023-02-12T01:43:48.844Z,581.00
2023-02-12T01:44:48.876Z,581.00
2023-02-12T01:45:48.901Z,581.00
2023-02-12T01:46:49.010Z,581.00
2023-02-12T01:47:49.057Z,581.00
2023-02-12T01:48:49.008Z,576.00
2023-02-12T01:49:49.063Z,580.00
2023-02-12T01:50:49.101Z,576.00
2023-02-12T01:57:49.429Z,572.00
2023-02-12T01:58:49.458Z,572.00
2023-02-12T01:59:49.475Z,572.00
2023-02-12T02:00:49.509Z,573.00
2023-02-12T02:01:49.589Z,576.00
2023-02-12T02:02:49.632Z,574.00
2023-02-12T02:03:49.662Z,574.00
2023-02-12T02:04:49.669Z,578.00
2023-02-12T02:05:49.727Z,573.00
2023-02-12T02:06:49.792Z,573.00
2023-02-12T02:07:49.810Z,578.00
2023-02-12T02:08:49.863Z,576.00
2023-02-12T02:09:49.917Z,576.00
2023-02-12T02:10:49.923Z,574.00
2023-02-12T02:11:49.968Z,575.00
2023-02-12T02:12:49.976Z,574.00
2023-02-12T02:13:50.037Z,575.00
2023-02-12T02:14:50.078Z,574.00
2023-02-12T02:15:50.152Z,573.00
2023-02-12T02:16:50.139Z,574.00
2023-02-12T02:17:50.175Z,570.00
2023-02-12T02:18:50.239Z,572.00
2023-02-12T02:19:50.282Z,574.00
2023-02-12T02:20:50.317Z,572.00
2023-02-12T02:21:50.328Z,570.00
2023-02-12T02:37:00.426Z,566.00
2023-02-12T02:37:51.986Z,566.00
2023-02-12T02:38:50.947Z,566.00
2023-02-12T03:03:51.433Z,559.00
2023-02-12T03:04:51.497Z,564.00
2023-02-12T03:05:51.493Z,558.00
2023-02-12T03:06:51.560Z,561.00
2023-02-12T03:07:51.576Z,560.00
2023-02-12T03:08:51.624Z,561.00
2023-02-12T03:09:51.684Z,559.00
2023-02-12T03:10:51.743Z,556.00
2023-02-12T03:11:51.771Z,556.00
2023-02-12T03:12:51.780Z,554.00
2023-02-12T03:13:51.852Z,559.00
2023-02-12T03:14:51.865Z,556.00
2023-02-12T03:15:51.907Z,558.00
2023-02-12T03:16:51.982Z,558.00
2023-02-12T03:17:52.013Z,560.00
2023-02-12T03:18:52.032Z,558.00
2023-02-12T03:19:52.085Z,559.00
2023-02-12T03:20:52.093Z,554.00
2023-02-12T03:21:52.188Z,558.00
2023-02-12T03:22:52.216Z,557.00
2023-02-12T03:23:52.259Z,553.00
2023-02-12T03:24:52.285Z,556.00
2023-02-12T03:25:52.311Z,555.00
2023-02-12T03:26:52.379Z,554.00
2023-02-12T05:03:56.090Z,540.00
2023-02-12T05:04:56.131Z,540.00
2023-02-12T05:05:56.342Z,545.00
2023-02-12T05:06:56.212Z,539.00
2023-02-12T05:07:56.241Z,538.00
2023-02-12T05:08:56.287Z,540.00
2023-02-12T05:09:56.325Z,536.00
2023-02-12T05:10:56.335Z,537.00
2023-02-12T05:11:56.409Z,537.00
2023-02-12T05:12:56.422Z,539.00
2023-02-12T05:13:56.469Z,542.00
2023-02-12T05:14:56.509Z,539.00
2023-02-12T05:15:56.935Z,541.00
2023-02-12T05:16:56.574Z,538.00
2023-02-12T05:17:56.637Z,538.00
2023-02-12T05:18:56.693Z,542.00
2023-02-12T05:19:56.704Z,540.00
2023-02-12T05:20:56.754Z,537.00
2023-02-12T05:21:56.790Z,538.00
2023-02-12T05:22:56.823Z,538.00
2023-02-12T05:23:56.875Z,538.00
2023-02-12T05:24:56.910Z,540.00
2023-02-12T05:25:57.244Z,537.00
2023-02-12T05:26:57.028Z,537.00
2023-02-12T05:27:57.203Z,538.00
2023-02-12T05:28:57.088Z,539.00
2023-02-12T05:29:57.113Z,537.00
2023-02-12T05:30:57.262Z,537.00
2023-02-12T05:31:57.328Z,532.00
2023-02-12T05:32:57.192Z,536.00
2023-02-12T05:33:57.255Z,531.00
2023-02-12T05:34:57.300Z,534.00
2023-02-12T05:35:57.531Z,535.00
2023-02-12T05:36:57.392Z,535.00
2023-02-12T05:37:57.419Z,536.00
2023-02-12T05:38:57.445Z,535.00
2023-02-12T05:39:57.472Z,534.00
2023-02-12T05:40:57.506Z,531.00
2023-02-12T05:41:57.551Z,536.00
2023-02-12T05:42:57.597Z,533.00
2023-02-12T05:43:57.686Z,536.00
2023-02-12T05:44:57.646Z,537.00
2023-02-12T05:45:58.052Z,536.00
2023-02-12T05:46:57.713Z,535.00
2023-02-12T05:47:57.746Z,537.00
2023-02-12T05:48:57.769Z,539.00
2023-02-12T05:49:57.829Z,534.00
2023-02-12T05:50:57.849Z,539.00
2023-02-12T05:51:57.905Z,539.00
2023-02-12T05:52:57.930Z,536.00
2023-02-12T05:53:57.958Z,538.00
2023-02-12T05:54:58.015Z,538.00
2023-02-12T05:55:58.006Z,537.00
2023-02-12T05:56:58.066Z,535.00
2023-02-12T05:57:58.125Z,540.00
2023-02-12T05:58:58.155Z,536.00
2023-02-12T05:59:58.192Z,534.00
2023-02-12T06:00:58.245Z,529.00
2023-02-12T06:01:58.242Z,530.00
2023-02-12T06:02:58.361Z,532.00
2023-02-12T06:03:58.379Z,532.00
2023-02-12T06:04:58.364Z,532.00
2023-02-12T06:05:58.493Z,532.00
2023-02-12T06:06:58.449Z,532.00
2023-02-12T06:07:58.479Z,535.00
2023-02-12T06:08:58.742Z,532.00
2023-02-12T06:09:58.536Z,532.00
2023-02-12T06:10:58.572Z,530.00
2023-02-12T06:11:58.614Z,534.00
2023-02-12T06:12:58.673Z,536.00
2023-02-12T06:13:58.713Z,533.00
2023-02-12T06:14:58.752Z,534.00
2023-02-12T06:15:59.311Z,531.00
2023-02-12T06:16:58.826Z,534.00
2023-02-12T06:17:58.834Z,533.00
2023-02-12T06:18:58.897Z,529.00
2023-02-12T06:19:58.916Z,535.00
2023-02-12T06:20:58.943Z,531.00
2023-02-12T06:21:58.997Z,530.00
2023-02-12T06:22:59.048Z,533.00
2023-02-12T06:23:59.082Z,529.00
2023-02-12T06:24:59.085Z,530.00
2023-02-12T06:25:59.126Z,531.00
2023-02-12T06:26:59.166Z,532.00
2023-02-12T06:27:59.225Z,531.00
2023-02-12T06:28:59.261Z,531.00
2023-02-12T06:29:59.254Z,531.00
2023-02-12T06:30:59.409Z,533.00
2023-02-12T06:31:59.514Z,532.00
2023-02-12T06:32:59.392Z,533.00
2023-02-12T06:33:59.415Z,532.00
2023-02-12T10:35:06.019Z,507.00
2023-02-12T10:38:06.054Z,506.00
2023-02-12T10:39:06.098Z,505.00
2023-02-12T10:40:06.129Z,502.00
2023-02-12T10:41:06.142Z,505.00
2023-02-12T10:42:06.183Z,503.00
2023-02-12T10:43:06.179Z,507.00
2023-02-12T10:44:06.218Z,505.00
2023-02-12T10:45:06.229Z,502.00
2023-02-12T10:46:06.270Z,505.00
2023-02-12T10:47:06.275Z,503.00
2023-02-12T10:48:06.323Z,505.00
2023-02-12T10:49:06.324Z,504.00
2023-02-12T10:50:06.333Z,502.00
2023-02-12T10:51:06.346Z,501.00
2023-02-12T10:52:06.391Z,502.00
2023-02-12T10:53:06.399Z,504.00
2023-02-12T10:54:06.430Z,500.00
2023-02-12T10:55:06.418Z,504.00
2023-02-12T10:56:06.476Z,503.00
2023-02-12T10:57:06.497Z,502.00
2023-02-12T10:58:06.532Z,500.00
2023-02-12T10:59:06.571Z,505.00
2023-02-12T11:00:06.525Z,501.00
2023-02-12T11:01:06.538Z,500.00
2023-02-12T11:02:06.597Z,501.00
2023-02-12T11:03:06.625Z,501.00
2023-02-12T11:04:06.634Z,500.00
2023-02-12T11:05:06.719Z,505.00
2023-02-12T11:06:06.642Z,502.00
2023-02-12T11:07:06.660Z,500.00
2023-02-12T11:08:06.690Z,501.00
2023-02-12T11:09:06.741Z,501.00
2023-02-12T11:10:06.745Z,502.00
2023-02-12T11:11:06.750Z,503.00
2023-02-12T11:12:06.747Z,505.00
2023-02-12T11:13:06.800Z,502.00
2023-02-12T11:14:06.819Z,503.00
2023-02-12T11:15:06.846Z,501.00
2023-02-12T11:16:06.874Z,503.00
2023-02-12T11:17:06.943Z,504.00
2023-02-12T11:18:06.920Z,501.00
2023-02-12T11:19:06.936Z,502.00
2023-02-12T11:20:06.983Z,503.00
2023-02-12T11:21:06.990Z,503.00
2023-02-12T11:22:07.035Z,504.00
2023-02-12T11:23:06.991Z,501.00
2023-02-12T11:24:07.010Z,502.00
2023-02-12T11:25:07.049Z,501.00
2023-02-12T11:26:07.077Z,501.00
2023-02-12T11:27:07.104Z,503.00
2023-02-12T11:28:07.294Z,503.00
2023-02-12T11:29:07.265Z,500.00
2023-02-12T11:30:07.142Z,504.00
2023-02-12T11:31:07.244Z,503.00
2023-02-12T11:32:07.222Z,506.00
2023-02-12T11:33:07.242Z,504.00
2023-02-12T12:02:07.942Z,500.00
2023-02-12T12:03:07.966Z,500.00
2023-02-12T12:04:07.927Z,501.00
2023-02-12T12:05:07.956Z,501.00
2023-02-12T12:06:07.959Z,504.00
2023-02-12T12:07:08.001Z,501.00
2023-02-12T12:08:07.999Z,501.00
2023-02-12T12:09:08.032Z,500.00
2023-02-12T12:10:08.065Z,501.00
2023-02-12T12:11:08.080Z,502.00
2023-02-12T12:12:08.077Z,503.00
2023-02-12T12:13:08.111Z,502.00
2023-02-12T12:14:08.187Z,501.00
2023-02-12T12:15:08.149Z,502.00
2023-02-12T12:16:08.287Z,503.00
2023-02-12T12:17:08.203Z,501.00
2023-02-12T12:18:08.221Z,500.00
2023-02-12T12:19:08.251Z,503.00
2023-02-12T12:20:08.284Z,501.00
2023-02-12T12:21:08.327Z,507.00
2023-02-12T12:22:08.323Z,504.00
2023-02-12T12:23:08.340Z,505.00
2023-02-12T12:24:08.374Z,502.00
2023-02-12T12:25:08.402Z,502.00
2023-02-12T12:26:08.416Z,502.00
2023-02-12T12:29:08.484Z,501.00
2023-02-12T12:33:08.606Z,501.00
2023-02-12T12:35:08.655Z,502.00
2023-02-12T12:36:08.647Z,501.00
2023-02-12T12:37:08.673Z,502.00
2023-02-12T12:38:08.711Z,504.00
2023-02-12T12:39:08.717Z,504.00
2023-02-12T12:40:08.715Z,505.00
2023-02-12T12:41:08.729Z,501.00
2023-02-12T12:42:08.747Z,501.00
2023-02-12T12:43:08.727Z,502.00
2023-02-12T12:44:08.786Z,502.00
2023-02-12T12:45:08.764Z,503.00
2023-02-12T12:46:08.822Z,501.00
2023-02-12T12:48:08.816Z,503.00
2023-02-12T12:51:08.848Z,504.00
2023-02-12T12:58:08.884Z,505.00
2023-02-12T13:02:08.977Z,505.00
2023-02-12T13:03:08.975Z,501.00
2023-02-12T13:04:09.009Z,501.00
2023-02-12T13:05:09.031Z,501.00
2023-02-12T13:06:08.989Z,503.00
2023-02-12T13:07:09.020Z,503.00
2023-02-12T13:08:09.008Z,502.00
2023-02-12T13:09:09.032Z,500.00
2023-02-12T13:10:09.021Z,504.00
2023-02-12T13:11:09.039Z,505.00
2023-02-12T13:12:09.063Z,505.00
2023-02-12T13:13:09.048Z,502.00
2023-02-12T13:14:09.065Z,504.00
2023-02-12T13:15:09.105Z,501.00
2023-02-12T13:16:09.082Z,503.00
2023-02-12T13:17:09.300Z,501.00
2023-02-12T13:18:09.129Z,502.00
2023-02-12T13:19:09.140Z,502.00
2023-02-12T13:20:09.143Z,502.00
2023-02-12T13:21:09.157Z,501.00
2023-02-12T13:22:09.120Z,501.00
2023-02-12T13:23:09.160Z,504.00
2023-02-12T13:24:09.164Z,502.00
2023-02-12T13:25:09.205Z,502.00
2023-02-12T13:26:09.174Z,503.00
2023-02-12T13:27:09.217Z,503.00
2023-02-12T13:28:09.287Z,504.00
2023-02-12T13:29:09.261Z,501.00
2023-02-12T13:30:09.247Z,502.00
2023-02-12T13:31:29.961Z,502.00
2023-02-12T13:32:10.404Z,502.00
2023-02-12T13:33:09.269Z,502.00
2023-02-12T13:34:09.231Z,502.00
2023-02-12T13:35:09.241Z,502.00
2023-02-12T13:36:09.250Z,503.00
2023-02-12T13:37:09.196Z,503.00
2023-02-12T13:38:09.220Z,501.00
2023-02-12T13:39:09.210Z,503.00
2023-02-12T13:40:09.199Z,503.00
2023-02-12T13:41:09.212Z,504.00
2023-02-12T13:42:09.182Z,503.00
2023-02-12T13:43:09.205Z,504.00
2023-02-12T13:44:09.173Z,502.00
2023-02-12T13:45:09.159Z,504.00
2023-02-12T13:46:09.199Z,508.00
2023-02-12T13:47:09.164Z,507.00
2023-02-12T13:48:09.164Z,503.00
2023-02-12T13:49:09.117Z,505.00
2023-02-12T13:50:09.150Z,502.00
2023-02-12T13:51:09.145Z,503.00
2023-02-12T13:52:09.142Z,507.00
2023-02-12T13:53:09.119Z,502.00
2023-02-12T13:54:09.114Z,500.00
2023-02-12T13:55:09.100Z,503.00
2023-02-12T13:56:09.081Z,503.00
2023-02-12T13:57:09.105Z,504.00
2023-02-12T13:58:09.084Z,503.00
2023-02-12T13:59:09.049Z,503.00
2023-02-12T14:00:09.092Z,501.00
2023-02-12T14:01:09.103Z,502.00
2023-02-12T14:02:09.104Z,500.00
2023-02-12T14:03:09.121Z,503.00
2023-02-12T14:04:09.113Z,505.00
2023-02-12T14:05:09.142Z,501.00
2023-02-12T14:06:09.134Z,501.00
2023-02-12T14:07:09.152Z,504.00
2023-02-12T14:08:09.162Z,503.00
2023-02-12T14:09:09.191Z,503.00
2023-02-12T14:10:09.232Z,503.00
2023-02-12T14:11:09.231Z,502.00
2023-02-12T14:12:09.222Z,504.00
2023-02-12T14:13:09.294Z,500.00
2023-02-12T14:14:09.307Z,505.00
2023-02-12T14:15:09.342Z,504.00
2023-02-12T14:16:09.458Z,509.00
2023-02-12T14:17:09.362Z,508.00
2023-02-12T14:18:09.409Z,505.00
2023-02-12T14:19:09.410Z,507.00
2023-02-12T14:20:09.461Z,508.00
2023-02-12T14:21:09.485Z,506.00
2023-02-12T14:22:09.512Z,506.00
2023-02-12T14:23:09.516Z,505.00
2023-02-12T14:24:09.531Z,505.00
2023-02-12T14:25:09.543Z,507.00
2023-02-12T14:26:09.592Z,504.00
2023-02-12T14:27:09.652Z,508.00
2023-02-12T14:28:09.705Z,507.00
2023-02-12T14:29:09.675Z,505.00
2023-02-12T14:30:09.993Z,509.00
2023-02-12T14:31:09.800Z,505.00
2023-02-12T14:32:09.771Z,502.00
2023-02-12T14:33:09.776Z,508.00
2023-02-12T14:34:09.816Z,505.00
2023-02-12T14:35:09.821Z,503.00
2023-02-12T14:36:09.829Z,508.00
2023-02-12T14:37:09.859Z,507.00
2023-02-12T14:38:09.911Z,506.00
2023-02-12T14:39:09.940Z,503.00
2023-02-12T14:40:09.941Z,505.00
2023-02-12T14:41:09.931Z,504.00
2023-02-12T14:42:10.008Z,507.00
2023-02-12T14:43:10.012Z,503.00
2023-02-12T14:44:10.037Z,505.00
2023-02-12T14:45:10.071Z,506.00
2023-02-12T14:46:10.127Z,504.00
2023-02-12T14:47:10.131Z,505.00
2023-02-12T14:48:10.154Z,503.00
2023-02-12T14:49:10.174Z,506.00
2023-02-12T14:50:10.196Z,504.00
2023-02-12T14:51:10.222Z,502.00
2023-02-12T14:52:10.249Z,504.00
2023-02-12T14:53:10.236Z,505.00
2023-02-12T14:54:10.282Z,503.00
2023-02-12T14:55:10.321Z,504.00
2023-02-12T14:56:10.365Z,502.00
2023-02-12T14:57:10.359Z,503.00
2023-02-12T14:58:10.430Z,505.00
2023-02-12T14:59:10.426Z,507.00
2023-02-12T15:00:10.449Z,505.00
2023-02-12T15:01:10.558Z,505.00
2023-02-12T15:02:10.505Z,503.00
2023-02-12T15:03:10.526Z,500.00
2023-02-12T15:04:10.552Z,505.00
2023-02-12T15:05:10.747Z,504.00
2023-02-12T15:06:10.611Z,505.00
2023-02-12T15:07:10.642Z,506.00
2023-02-12T15:08:10.644Z,506.00
2023-02-12T15:09:10.700Z,506.00
2023-02-12T15:10:10.769Z,508.00
2023-02-12T15:11:10.776Z,502.00
2023-02-12T15:12:10.796Z,504.00
2023-02-12T15:13:10.818Z,501.00
2023-02-12T15:14:10.864Z,508.00
2023-02-12T15:15:10.907Z,504.00
2023-02-12T15:16:10.975Z,507.00
2023-02-12T15:17:10.959Z,503.00
2023-02-12T15:18:10.954Z,504.00
2023-02-12T15:19:10.998Z,504.00
2023-02-12T15:21:11.091Z,502.00
2023-02-12T15:22:11.105Z,501.00
2023-02-12T15:23:11.144Z,501.00
2023-02-12T15:24:11.180Z,503.00
2023-02-12T15:25:11.211Z,501.00
2023-02-12T15:26:11.244Z,503.00
2023-02-12T15:27:11.256Z,504.00
2023-02-12T15:30:14.869Z,501.00
2023-02-12T15:31:12.470Z,502.00
2023-02-12T15:32:11.315Z,503.00
2023-02-12T15:33:12.484Z,503.00
2023-02-12T15:34:11.371Z,504.00
2023-02-12T15:35:11.342Z,506.00
2023-02-12T15:36:11.337Z,509.00
2023-02-12T15:37:11.291Z,505.00
2023-02-12T15:38:11.311Z,507.00
2023-02-12T15:39:11.313Z,504.00
2023-02-12T15:40:11.354Z,500.00
2023-02-12T15:41:11.400Z,504.00
2023-02-12T15:42:11.442Z,504.00
2023-02-12T15:43:11.443Z,503.00
2023-02-12T15:44:11.488Z,503.00
2023-02-12T15:45:11.599Z,503.00
2023-02-12T15:46:11.608Z,504.00
2023-02-12T15:48:30.694Z,500.00
2023-02-12T15:49:30.683Z,500.00
2023-02-12T15:50:30.725Z,500.00
2023-02-12T15:51:30.689Z,500.00
2023-02-12T15:52:30.670Z,500.00
2023-02-12T15:53:30.674Z,502.00
2023-02-12T15:54:30.657Z,503.00
2023-02-12T15:55:30.660Z,499.00
2023-02-12T15:56:30.656Z,506.00
2023-02-12T15:57:30.622Z,500.00
2023-02-12T15:58:30.658Z,501.00
2023-02-12T15:59:30.658Z,500.00
2023-02-12T16:00:30.630Z,502.00
2023-02-12T16:01:30.679Z,505.00
2023-02-12T16:02:30.587Z,505.00
2023-02-12T16:03:31.427Z,502.00
2023-02-12T16:04:30.678Z,507.00
2023-02-12T16:05:30.607Z,505.00
2023-02-12T16:06:30.556Z,500.00
2023-02-12T16:07:30.608Z,502.00
2023-02-12T16:08:30.553Z,500.00
2023-02-12T16:09:30.558Z,506.00
2023-02-12T16:10:30.564Z,507.00
2023-02-12T16:11:30.514Z,505.00
2023-02-12T16:12:30.532Z,505.00
2023-02-12T16:15:30.501Z,504.00
2023-02-12T16:16:30.578Z,504.00
2023-02-12T16:17:30.455Z,505.00
2023-02-12T16:18:30.519Z,505.00
2023-02-12T16:19:30.482Z,502.00
2023-02-12T20:05:34.649Z,539.00
2023-02-12T20:12:34.746Z,538.00
2023-02-12T20:13:34.761Z,543.00
2023-02-12T20:14:34.754Z,540.00
2023-02-12T20:15:34.827Z,539.00
2023-02-12T20:16:37.587Z,540.00
2023-02-12T20:17:34.812Z,544.00
2023-02-12T20:18:34.791Z,547.00
2023-02-12T20:19:34.801Z,543.00
2023-02-12T20:35:34.667Z,543.00
2023-02-12T20:36:34.694Z,541.00
2023-02-12T20:37:34.661Z,545.00
2023-02-12T20:38:34.657Z,546.00
2023-02-12T20:39:34.640Z,542.00
2023-02-12T20:40:34.628Z,542.00
2023-02-12T20:41:34.644Z,546.00
2023-02-12T20:42:34.612Z,545.00
2023-02-12T20:43:34.634Z,549.00
2023-02-12T20:44:34.648Z,545.00
2023-02-12T20:45:34.600Z,548.00
2023-02-12T20:46:34.613Z,544.00
2023-02-12T20:47:34.568Z,545.00
2023-02-12T20:48:34.578Z,545.00
2023-02-12T20:49:34.560Z,547.00
2023-02-12T20:50:34.557Z,545.00
2023-02-12T20:51:34.654Z,545.00
2023-02-12T20:52:34.533Z,547.00
2023-02-12T20:53:34.540Z,551.00
2023-02-12T20:54:34.509Z,550.00
2023-02-12T20:55:34.530Z,547.00
2023-02-12T20:56:34.505Z,547.00
2023-02-12T21:01:34.648Z,549.00
2023-02-12T21:02:34.525Z,552.00
2023-02-12T21:03:34.483Z,545.00
2023-02-12T21:04:34.452Z,549.00
2023-02-12T21:05:34.460Z,548.00
2023-02-12T21:06:34.462Z,549.00
2023-02-12T21:07:34.427Z,547.00
2023-02-12T21:08:34.420Z,552.00
2023-02-12T21:09:34.449Z,551.00
2023-02-12T21:10:34.408Z,549.00
2023-02-12T21:11:34.404Z,551.00
2023-02-12T21:13:34.396Z,548.00
2023-02-12T21:14:34.371Z,552.00
2023-02-12T21:15:34.380Z,554.00
2023-02-12T21:16:34.441Z,548.00
2023-02-12T21:17:34.888Z,551.00
2023-02-12T21:18:34.363Z,550.00
2023-02-12T21:19:34.371Z,548.00
2023-02-12T21:20:34.356Z,551.00
2023-02-12T21:21:34.332Z,548.00
2023-02-12T21:22:34.312Z,550.00
2023-02-12T21:23:34.328Z,550.00
2023-02-12T21:24:34.313Z,551.00
2023-02-12T21:25:34.320Z,553.00
2023-02-12T21:26:34.284Z,552.00
2023-02-12T21:27:34.305Z,551.00
2023-02-12T21:28:34.390Z,546.00
2023-02-12T21:29:34.281Z,553.00
2023-02-12T21:30:34.288Z,550.00
2023-02-12T21:31:34.389Z,546.00
2023-02-12T21:32:34.376Z,548.00
2023-02-12T21:33:34.265Z,553.00
2023-02-12T21:34:34.266Z,553.00
2023-02-12T21:35:34.248Z,551.00
2023-02-12T21:36:34.259Z,557.00
2023-02-12T21:37:34.215Z,550.00
2023-02-12T21:38:34.194Z,552.00
2023-02-12T21:39:34.203Z,549.00
2023-02-12T21:40:34.244Z,553.00
2023-02-12T21:41:34.198Z,548.00
2023-02-12T21:42:34.217Z,550.00
2023-02-12T21:43:34.200Z,548.00
2023-02-12T21:44:34.167Z,551.00
2023-02-12T21:45:34.201Z,557.00
2023-02-12T21:46:34.132Z,553.00
2023-02-12T21:47:34.134Z,550.00
2023-02-12T21:48:34.153Z,549.00
2023-02-12T21:49:34.141Z,551.00
2023-02-12T21:50:34.160Z,552.00
2023-02-12T21:51:34.182Z,552.00
2023-02-12T21:52:34.223Z,555.00
2023-02-12T21:53:34.245Z,550.00
2023-02-12T21:54:34.274Z,548.00
2023-02-12T21:55:34.304Z,554.00
2023-02-12T21:58:34.368Z,549.00
2023-02-12T21:59:34.384Z,553.00
2023-02-12T22:00:34.420Z,553.00
2023-02-12T22:01:34.412Z,558.00
2023-02-12T22:02:34.461Z,556.00
2023-02-12T22:03:34.429Z,553.00
2023-02-12T22:04:34.442Z,554.00
2023-02-12T22:05:34.464Z,553.00
2023-02-12T22:06:34.528Z,553.00
2023-02-12T22:07:34.549Z,553.00
2023-02-12T22:10:34.574Z,558.00
2023-02-12T22:11:34.591Z,552.00
2023-02-12T22:12:34.622Z,552.00
2023-02-12T22:13:34.641Z,553.00
2023-02-12T22:22:34.793Z,557.00
2023-02-12T22:23:34.811Z,557.00
2023-02-12T22:24:34.830Z,551.00
2023-02-12T22:25:34.814Z,554.00
2023-02-12T22:26:34.852Z,557.00
2023-02-12T22:27:35.535Z,552.00
2023-02-12T22:28:34.864Z,552.00
2023-02-12T22:29:34.843Z,556.00
2023-02-12T22:30:34.872Z,551.00
2023-02-12T22:31:34.955Z,554.00
2023-02-12T22:32:34.974Z,553.00
2023-02-12T22:33:34.862Z,555.00
2023-02-12T22:34:34.872Z,550.00
2023-02-12T22:35:34.886Z,556.00
2023-02-12T22:36:34.900Z,553.00
2023-02-12T22:37:34.903Z,548.00
2023-02-12T22:38:34.896Z,551.00
2023-02-12T22:39:34.918Z,551.00
2023-02-12T22:40:34.894Z,553.00
2023-02-12T22:41:34.912Z,553.00
2023-02-12T22:42:34.921Z,553.00
2023-02-12T22:43:34.924Z,551.00
2023-02-12T22:44:34.937Z,554.00
2023-02-12T22:45:34.968Z,552.00
2023-02-12T22:46:34.934Z,555.00
2023-02-12T22:47:34.945Z,556.00
2023-02-12T22:48:34.969Z,552.00
2023-02-12T22:49:34.958Z,554.00
2023-02-12T22:50:36.575Z,554.00
2023-02-12T22:51:34.994Z,552.00
2023-02-12T22:52:34.971Z,555.00
2023-02-12T22:53:34.966Z,551.00
2023-02-12T22:54:34.998Z,552.00
2023-02-12T22:55:34.989Z,554.00
2023-02-12T22:56:35.014Z,554.00
2023-02-12T22:57:34.985Z,551.00
2023-02-12T22:58:34.997Z,551.00
2023-02-12T22:59:35.025Z,552.00
2023-02-12T23:00:35.018Z,555.00
2023-02-12T23:01:35.098Z,550.00
2023-02-12T23:02:35.049Z,553.00
2023-02-12T23:03:35.161Z,550.00
2023-02-12T23:04:35.072Z,554.00
2023-02-12T23:05:35.057Z,549.00
2023-02-12T23:06:35.078Z,549.00
2023-02-12T23:07:35.061Z,546.00
2023-02-12T23:08:35.080Z,554.00
2023-02-12T23:09:35.087Z,549.00
2023-02-12T23:10:35.082Z,553.00
2023-02-12T23:11:35.073Z,550.00
2023-02-12T23:12:35.093Z,550.00
2023-02-12T23:13:35.103Z,551.00
2023-02-12T23:14:35.106Z,550.00
2023-02-12T23:15:35.106Z,545.00
2023-02-12T23:16:35.201Z,548.00
2023-02-12T23:17:35.118Z,552.00
2023-02-12T23:18:35.190Z,549.00
2023-02-12T23:19:35.160Z,549.00
2023-02-12T23:20:35.142Z,550.00
2023-02-12T23:21:35.187Z,550.00
2023-02-12T23:22:35.231Z,550.00
2023-02-12T23:23:35.259Z,549.00
2023-02-12T23:24:35.355Z,548.00
2023-02-12T23:25:35.260Z,549.00
2023-02-12T23:26:35.340Z,548.00
2023-02-12T23:27:35.342Z,545.00
2023-02-12T23:28:35.426Z,546.00
2023-02-12T23:29:35.431Z,545.00
2023-02-12T23:30:35.465Z,551.00
2023-02-12T23:31:35.517Z,545.00
2023-02-12T23:32:35.477Z,548.00
2023-02-12T23:33:35.468Z,551.00
2023-02-12T23:34:35.495Z,544.00
2023-02-12T23:35:35.559Z,545.00
2023-02-12T23:36:35.536Z,545.00
2023-02-12T23:37:35.563Z,547.00
2023-02-12T23:38:35.609Z,544.00
2023-02-12T23:39:35.581Z,546.00
2023-02-12T23:40:35.623Z,548.00
2023-02-12T23:41:35.684Z,545.00
2023-02-12T23:42:35.687Z,545.00
2023-02-12T23:43:35.714Z,543.00
2023-02-12T23:44:35.719Z,544.00
2023-02-12T23:45:35.759Z,543.00
2023-02-12T23:46:35.786Z,547.00
2023-02-12T23:47:35.806Z,546.00
2023-02-12T23:48:35.822Z,543.00
2023-02-12T23:49:35.861Z,546.00
2023-02-12T23:50:35.880Z,545.00
2023-02-12T23:51:35.876Z,544.00
2023-02-12T23:52:35.915Z,547.00
2023-02-12T23:53:35.938Z,541.00
2023-02-12T23:54:35.961Z,547.00
2023-02-12T23:55:35.985Z,546.00
2023-02-12T23:56:35.976Z,543.00
2023-02-12T23:57:36.015Z,543.00
2023-02-12T23:58:36.042Z,545.00
2023-02-12T23:59:36.107Z,544.00
